Latest Weather Observations for Luncheon Hill

IDT60801

Issued at 11:31 pm EST Sunday 25 September 2016 (issued every 30 minutes, with the page automatically refreshed every 10 minutes)

About weather observations | Map of weather stations | Latest weather observations for TAS | Other Formats
Station Details ID: 091259 Name: LUNCHEON HILL (FORESTRY) Lat: -41.15 Lon: 145.15 Height: 344.0 m
Data from the previous 72 hours. | See also: Recent months at Luncheon Hill
Date/Time
EST
Temp
°C
App
Temp
°C
Dew
Point
°C
Rel
Hum
%
Delta-T
°C
Wind Press
QNH
hPa
Press
MSL
hPa
Rain since
9am
mm
Dir  Spd
km/h
Gust
km/h
Spd
kts
Gust
kts
25/11:30pm 6.1 3.9 3.3 82 1.2 WSW 4 6 2 3 - - 1.0
25/11:00pm 6.3 3.8 3.6 83 1.2 W 6 7 3 4 - - 1.0
25/10:30pm 6.3 3.6 3.8 84 1.1 SW 7 9 4 5 - - 1.0
25/10:00pm 5.8 2.4 3.8 87 0.9 SSW 11 13 6 7 - - 1.0
25/09:30pm 5.8 1.9 3.6 86 0.9 SSW 13 17 7 9 - - 1.0
25/09:00pm 6.2 2.4 3.9 85 1.0 SW 13 13 7 7 - - 1.0
25/08:30pm 5.8 1.5 3.5 85 1.0 SSW 15 15 8 8 - - 1.0
25/08:00pm 6.0 2.1 3.2 82 1.2 SSW 13 19 7 10 - - 1.0
25/07:30pm 6.3 1.9 2.9 79 1.4 SW 15 19 8 10 - - 1.0
25/07:00pm 6.3 1.9 2.6 77 1.6 SSW 15 22 8 12 - - 1.0
25/06:30pm 6.4 1.6 2.7 77 1.6 SW 17 24 9 13 - - 1.0
25/06:00pm 7.0 1.7 1.9 70 2.1 SW 19 28 10 15 - - 1.0
25/05:30pm 8.9 4.3 3.5 69 2.4 SW 17 24 9 13 - - 1.0
25/05:00pm 8.0 2.5 4.0 76 1.8 SSW 22 33 12 18 - - 1.0
25/04:30pm 9.9 4.4 3.9 66 2.7 SSW 22 32 12 17 - - 1.0
25/04:00pm 9.1 3.9 3.5 68 2.5 SW 20 37 11 20 - - 1.0
25/03:30pm 10.0 4.6 2.6 60 3.2 SW 20 37 11 20 - - 1.0
25/03:00pm 10.0 4.1 4.0 66 2.7 SW 24 44 13 24 - - 1.0
25/02:30pm 10.3 4.5 4.2 66 2.8 SW 24 39 13 21 - - 1.0
25/02:00pm 11.0 6.1 4.9 66 2.8 SW 20 37 11 20 - - 1.0
25/01:30pm 9.4 4.4 6.5 82 1.4 SW 22 39 12 21 - - 1.0
25/01:16pm 8.7 2.4 5.8 82 1.3 SW 28 48 15 26 - - 0.8
25/01:00pm 9.5 4.4 5.9 78 1.7 SW 22 44 12 24 - - 0.8
25/12:30pm 9.7 5.4 7.0 83 1.3 WSW 19 35 10 19 - - 0.8
25/12:00pm 7.3 0.9 5.3 87 0.9 WSW 28 46 15 25 - - 0.8
25/11:56am 7.4 0.9 4.7 83 1.2 WSW 28 46 15 25 - - 0.8
25/11:30am 10.1 4.6 6.1 76 1.9 WSW 24 41 13 22 - - 0.6
25/11:00am 8.4 4.5 7.2 92 0.6 WSW 17 30 9 16 - - 0.6
25/10:30am 8.1 3.0 4.3 77 1.7 WSW 20 37 11 20 - - 0.0
25/10:00am 8.4 3.4 4.8 78 1.6 SW 20 32 11 17 - - 0.0
25/09:30am 8.0 4.0 6.5 90 0.7 SW 17 24 9 13 - - 0.0
25/09:00am 6.8 1.3 6.1 95 0.3 SW 24 39 13 21 - - 12.6
25/08:30am 7.1 3.5 6.7 97 0.2 SW 15 22 8 12 - - 12.6
25/08:00am 6.5 3.1 5.9 96 0.3 SW 13 20 7 11 - - 12.4
25/07:30am 6.2 2.0 5.8 97 0.2 SSW 17 20 9 11 - - 12.4
25/07:00am 5.7 0.8 5.3 97 0.2 SSW 20 26 11 14 - - 12.4
25/06:30am 5.7 1.4 5.3 97 0.2 SW 17 24 9 13 - - 12.4
25/06:00am 6.1 1.5 5.7 97 0.2 WSW 19 32 10 17 - - 11.8
25/05:30am 5.9 2.1 5.6 98 0.1 SW 15 19 8 10 - - 11.6
25/05:00am 6.1 2.3 5.8 98 0.1 SW 15 20 8 11 - - 11.6
25/04:30am 6.5 2.0 6.2 98 0.1 SW 19 30 10 16 - - 11.6
25/04:00am 6.8 2.8 6.7 99 0.0 SW 17 24 9 13 - - 11.4
25/03:30am 7.3 3.4 7.2 99 0.0 WSW 17 28 9 15 - - 11.4
25/03:00am 7.8 4.0 7.7 99 0.0 WSW 17 28 9 15 - - 11.4
25/02:30am 7.9 3.6 7.8 99 0.0 WSW 20 32 11 17 - - 11.4
25/02:00am 8.6 4.5 8.5 99 0.0 WSW 20 35 11 19 - - 11.2
25/01:30am 9.7 5.5 9.6 99 0.1 NW 22 39 12 21 - - 10.8
25/01:00am 9.8 3.5 9.7 99 0.1 N 33 46 18 25 - - 10.0
25/12:30am 10.0 3.8 9.9 99 0.1 N 33 46 18 25 - - 9.8
25/12:04am 10.0 3.0 9.9 99 0.1 N 37 56 20 30 - - 9.4
25/12:00am 10.0 2.6 9.9 99 0.1 N 39 56 21 30 - - 9.2
 
Date/Time
EST
Temp
°C
App
Temp
°C
Dew
Point
°C
Rel
Hum
%
Delta-T
°C
Wind Press
QNH
hPa
Press
MSL
hPa
Rain since
9am
mm
Dir  Spd
km/h
Gust
km/h
Spd
kts
Gust
kts
24/11:31pm 10.2 3.6 10.1 99 0.1 N 35 59 19 32 - - 8.0
24/11:30pm 10.2 3.6 10.1 99 0.1 N 35 46 19 25 - - 7.8
24/11:00pm 10.1 4.0 9.8 98 0.2 N 32 41 17 22 - - 5.8
24/10:30pm 10.0 4.3 9.7 98 0.2 N 30 37 16 20 - - 2.8
24/10:00pm 9.9 4.5 9.4 97 0.3 NNE 28 33 15 18 - - 1.6
24/09:30pm 9.7 4.2 9.1 96 0.3 NNE 28 33 15 18 - - 1.0
24/09:00pm 9.8 4.2 8.7 93 0.5 NNE 28 37 15 20 - - 0.2
24/08:30pm 10.1 4.7 8.2 88 0.9 NE 26 33 14 18 - - 0.0
24/08:00pm 10.5 4.6 7.6 82 1.4 NE 28 39 15 21 - - 0.0
24/07:30pm 10.5 5.3 7.4 81 1.5 NE 24 32 13 17 - - 0.0
24/07:00pm 10.7 5.2 7.4 80 1.6 NE 26 32 14 17 - - 0.0
24/06:30pm 10.9 5.7 7.2 78 1.8 NE 24 35 13 19 - - 0.0
24/06:00pm 10.9 5.8 7.6 80 1.6 NE 24 35 13 19 - - 0.0
24/05:30pm 11.2 6.1 7.7 79 1.7 NE 24 32 13 17 - - 0.0
24/05:00pm 11.6 5.7 7.7 77 1.9 NNE 28 39 15 21 - - 0.0
24/04:30pm 12.0 5.4 7.7 75 2.1 NNE 32 41 17 22 - - 0.0
24/04:00pm 12.5 6.7 8.0 74 2.3 NNE 28 35 15 19 - - 0.0
24/03:30pm 12.5 6.8 8.4 76 2.1 NNE 28 37 15 20 - - 0.0
24/03:00pm 13.3 7.0 9.0 75 2.2 N 32 43 17 23 - - 0.0
24/02:30pm 13.1 6.1 8.6 74 2.3 NNE 35 43 19 23 - - 0.0
24/02:00pm 13.4 4.8 8.0 70 2.7 NNE 43 56 23 30 - - 0.0
24/01:39pm 14.6 8.2 9.4 71 2.7 N 33 54 18 29 - - 0.0
24/01:30pm 13.5 6.1 8.4 71 2.6 NNE 37 50 20 27 - - 0.0
24/01:00pm 14.0 7.7 9.6 75 2.3 NNE 33 46 18 25 - - 0.0
24/12:30pm 13.3 6.6 9.7 79 1.9 NNE 35 46 19 25 - - 0.0
24/12:00pm 13.4 6.7 10.9 85 1.3 NE 37 46 20 25 - - 0.0
24/11:30am 12.4 5.2 10.6 89 1.0 NNE 39 52 21 28 - - 0.0
24/11:22am 12.7 6.8 11.3 91 0.8 NNE 33 52 18 28 - - 0.0
24/11:00am 11.7 5.8 11.1 96 0.3 NNE 33 48 18 26 - - 0.0
24/10:30am 11.7 5.5 11.4 98 0.2 NNE 35 50 19 27 - - 0.0
24/10:00am 11.9 6.7 11.7 99 0.1 NE 30 43 16 23 - - 0.0
24/09:30am 11.4 5.5 11.2 99 0.1 NE 33 44 18 24 - - 0.0
24/09:00am 10.3 3.7 10.1 99 0.1 NE 35 43 19 23 - - 0.6
24/08:30am 9.8 3.7 9.7 99 0.1 ENE 32 39 17 21 - - 0.4
24/08:00am 9.6 3.4 9.5 99 0.1 ENE 32 41 17 22 - - 0.2
24/07:30am 9.4 3.2 9.3 99 0.1 ENE 32 43 17 23 - - 0.2
24/07:00am 9.4 3.1 9.1 98 0.2 ENE 32 43 17 23 - - 0.2
24/06:40am 9.2 3.6 8.9 98 0.1 ENE 28 46 15 25 - - 0.2
24/06:30am 9.2 3.3 8.9 98 0.1 ENE 30 41 16 22 - - 0.2
24/06:00am 9.2 2.8 8.7 97 0.2 ENE 32 46 17 25 - - 0.0
24/05:30am 9.1 2.7 8.5 96 0.3 ENE 32 41 17 22 - - 0.0
24/05:00am 9.2 2.7 8.1 93 0.5 ENE 32 43 17 23 - - 0.0
24/04:30am 9.1 2.9 7.9 92 0.6 ENE 30 43 16 23 - - 0.0
24/04:00am 8.8 2.6 7.7 93 0.5 ENE 30 41 16 22 - - 0.0
24/03:30am 8.8 2.6 7.9 94 0.4 ENE 30 39 16 21 - - 0.0
24/03:00am 8.8 2.6 8.0 95 0.4 ENE 30 41 16 22 - - 0.0
24/02:30am 8.8 2.1 8.0 95 0.4 ENE 33 46 18 25 - - 0.0
24/02:00am 8.8 2.0 7.9 94 0.4 ENE 33 43 18 23 - - 0.0
24/01:34am 8.7 2.1 7.6 93 0.5 ENE 32 50 17 27 - - 0.0
24/01:30am 8.7 2.1 7.6 93 0.5 ENE 32 46 17 25 - - 0.0
24/01:00am 8.4 2.5 7.6 95 0.4 E 28 44 15 24 - - 0.0
24/12:30am 8.1 2.2 7.7 97 0.2 ENE 28 41 15 22 - - 0.0
24/12:00am 7.9 1.6 7.3 96 0.3 ENE 30 43 16 23 - - 0.0
 
Date/Time
EST
Temp
°C
App
Temp
°C
Dew
Point
°C
Rel
Hum
%
Delta-T
°C
Wind Press
QNH
hPa
Press
MSL
hPa
Rain since
9am
mm
Dir  Spd
km/h
Gust
km/h
Spd
kts
Gust
kts
23/11:30pm 8.3 1.4 7.1 92 0.6 ENE 33 44 18 24 - - 0.0
23/11:00pm 8.3 1.9 6.9 91 0.7 ENE 30 43 16 23 - - 0.0
23/10:30pm 8.3 2.3 6.9 91 0.7 ENE 28 39 15 21 - - 0.0
23/10:00pm 8.5 2.8 6.6 88 0.9 ENE 26 35 14 19 - - 0.0
23/09:30pm 8.6 2.8 6.2 85 1.1 ENE 26 33 14 18 - - 0.0
23/09:00pm 8.8 3.5 6.6 86 1.0 ENE 24 32 13 17 - - 0.0
23/08:30pm 9.0 4.5 6.8 86 1.0 ENE 20 26 11 14 - - 0.0
23/08:00pm 9.5 4.9 6.6 82 1.4 ENE 20 22 11 12 - - 0.0
23/07:30pm 9.6 5.2 6.5 81 1.5 NE 19 22 10 12 - - 0.0
23/07:00pm 9.9 5.4 6.1 77 1.8 NE 19 20 10 11 - - 0.0
23/06:30pm 10.0 5.3 6.0 76 1.9 NE 20 26 11 14 - - 0.0
23/06:00pm 11.0 6.9 6.4 73 2.2 NNE 17 26 9 14 - - 0.0
23/05:30pm 12.2 7.3 6.7 69 2.7 NNE 22 28 12 15 - - 0.0
23/05:00pm 13.0 8.6 7.2 68 2.9 NNE 20 26 11 14 - - 0.0
23/04:30pm 13.5 8.1 7.9 69 2.8 NNE 26 32 14 17 - - 0.0
23/04:00pm 12.6 7.4 7.3 70 2.6 NNE 24 35 13 19 - - 0.0
23/03:30pm 13.5 7.4 6.6 63 3.4 NNE 28 35 15 19 - - 0.0
23/03:00pm 14.1 8.0 6.5 60 3.7 NNE 28 39 15 21 - - 0.0
23/02:30pm 15.4 10.1 8.4 63 3.6 N 26 35 14 19 - - 0.0
23/02:00pm 16.1 10.7 8.1 59 4.1 NNE 26 39 14 21 - - 0.0
23/01:30pm 15.2 9.7 7.7 61 3.8 NNE 26 35 14 19 - - 0.0
23/01:00pm 16.1 10.7 7.8 58 4.2 NNE 26 35 14 19 - - 0.0
23/12:30pm 14.6 9.1 7.4 62 3.6 NE 26 32 14 17 - - 0.0
23/12:00pm 17.2 11.4 8.1 55 4.7 NNE 28 39 15 21 - - 0.0
23/11:30am 17.0 11.6 7.9 55 4.7 NNE 26 35 14 19 - - 0.0
23/11:00am 15.1 9.8 8.3 64 3.5 NNE 26 35 14 19 - - 0.0
23/10:30am 14.8 10.7 10.0 73 2.5 NE 22 30 12 16 - - 0.0
23/10:00am 13.5 10.1 9.2 75 2.2 NE 17 22 9 12 - - 0.0
23/09:30am 13.3 9.5 9.2 76 2.1 NE 19 24 10 13 - - 0.0
23/09:00am 11.8 7.6 8.3 79 1.8 ENE 20 28 11 15 - - 0.0
23/08:30am 10.3 7.3 7.5 83 1.4 NE 13 17 7 9 - - 0.0
23/08:00am 9.5 7.2 7.6 88 0.9 ENE 9 15 5 8 - - 0.0
23/07:30am 8.4 7.9 8.0 97 0.2 CALM 0 0 0 0 - - 0.0
23/07:00am 7.1 5.2 6.8 98 0.1 SSE 6 9 3 5 - - 0.0
23/06:30am 6.1 4.0 5.7 97 0.2 SSE 6 7 3 4 - - 0.0
23/06:00am 6.5 3.9 6.2 98 0.1 SE 9 11 5 6 - - 0.0
23/05:30am 6.0 2.9 5.7 98 0.1 SSE 11 15 6 8 - - 0.0
23/05:00am 6.1 3.1 5.8 98 0.1 SSE 11 13 6 7 - - 0.0
23/04:30am 6.2 2.4 5.9 98 0.1 SSE 15 20 8 11 - - 0.0
23/04:00am 6.2 2.4 5.9 98 0.1 S 15 17 8 9 - - 0.0
23/03:30am 6.2 2.4 5.9 98 0.1 SSE 15 17 8 9 - - 0.0
23/03:00am 6.1 2.3 5.8 98 0.1 S 15 19 8 10 - - 0.0
23/02:30am 6.2 2.0 5.9 98 0.1 S 17 20 9 11 - - 0.0
23/02:00am 6.4 1.9 6.1 98 0.1 S 19 22 10 12 - - 0.0
23/01:30am 6.6 1.9 6.2 97 0.2 S 20 24 11 13 - - 0.0
23/01:00am 6.8 1.8 6.4 97 0.2 S 22 30 12 16 - - 0.0
23/12:30am 6.7 2.2 6.3 97 0.2 SSW 19 24 10 13 - - 0.0
23/12:00am 6.8 2.4 6.4 97 0.2 S 19 24 10 13 - - 0.0

Other Formats:

Comma delimited format used in spreadsheet applications
http://www.bom.gov.au/fwo/IDT60801/IDT60801.95956.axf

JavaScript Object Notation format (JSON) in row-major order
http://www.bom.gov.au/fwo/IDT60801/IDT60801.95956.json